Berit — ZDHX2 — position and weather

sailwx.info

Track history (hours):
 
Tides and Currents Weather Stations Pressure Air Temp Water Temp Dewpoint Dewpoint Depression Visibility Wind Speed Wind Dir Waves Ship Positions

Berit

Last reported at 2016-Jul-19 08:25 UTC. Time now 2016-Jul-23 13:07 UTC.
Position N 66°47' E 013°18'.

Length 83 m; draft 3.4 m.

Type: Cargo ship. MMSI: 236386000.

Date/timePositionNaut miles runAvg speedWind from/ knotsBaromVisibWave heightAir tempDewpointWater temp
2016-Jul-19 08:25N 66°47' E 013°18'37 9.5
2016-Jul-19 04:33N 66°15' E 012°31'9 8.7
2016-Jul-19 03:33N 66°17' E 012°10'461 8.9
2016-Jul-16 23:33N 59°23' E 004°40'9 9.0
2016-Jul-16 22:32N 59°14' E 004°42'8 8.6
2016-Jul-16 21:33N 59°07' E 004°51'9 8.7
2016-Jul-16 20:34N 59°00' E 005°00'8 8.2
2016-Jul-16 19:33N 58°53' E 005°08'8 7.9
2016-Jul-16 18:33N 58°46' E 005°16'9 8.8
2016-Jul-16 17:33N 58°39' E 005°25'1010.4
2016-Jul-16 16:33N 58°30' E 005°36'1010.1
2016-Jul-16 15:33N 58°23' E 005°50'1010.1
2016-Jul-16 14:32N 58°16' E 006°05'10 9.9
2016-Jul-16 13:33N 58°09' E 006°18'9 9.1
2016-Jul-16 12:33N 58°03' E 006°31'9 8.8
2016-Jul-16 11:33N 57°60' E 006°46'9 8.7
2016-Jul-16 10:33N 57°57' E 007°02'78 8.3
2016-Jul-16 01:07N 57°52' E 009°29'3 4.9
2016-Jul-16 00:33N 57°51' E 009°34'5 4.1
2016-Jul-15 23:25N 57°50' E 009°42'4 4.0
2016-Jul-15 22:33N 57°50' E 009°49'5 4.7
2016-Jul-15 21:25N 57°50' E 009°59'6 6.1
2016-Jul-15 20:25N 57°50' E 010°11'6 7.3
2016-Jul-15 19:33N 57°49' E 010°22'9 8.1
2016-Jul-15 18:23N 57°48' E 010°40'5 5.6
2016-Jul-15 17:30N 57°44' E 010°42'3 3.6
2016-Jul-15 16:32N 57°42' E 010°36'2 1.5
2016-Jul-15 15:29N 57°41' E 010°39'9 9.7
2016-Jul-15 14:33N 57°39' E 010°55'9 9.4
2016-Jul-15 13:33N 57°35' E 011°11'10 9.5
2016-Jul-15 12:33N 57°29' E 011°24'9 9.4
2016-Jul-15 11:33N 57°20' E 011°31'10 9.7
2016-Jul-15 10:33N 57°11' E 011°37'10 9.8
2016-Jul-15 09:33N 57°02' E 011°43'10 9.8
2016-Jul-15 08:33N 56°52' E 011°49'9 9.1
2016-Jul-15 07:33N 56°44' E 011°54'9 9.1
2016-Jul-15 06:32N 56°35' E 011°58'10 9.1
2016-Jul-15 05:28N 56°26' E 012°07'11 9.2
2016-Jul-15 04:15N 56°18' E 012°20'7 9.9
2016-Jul-15 03:33N 56°12' E 012°27'10 9.9
2016-Jul-15 02:33N 56°04' E 012°38'10 9.9
2016-Jul-15 01:33N 55°55' E 012°44'1010.0
2016-Jul-15 00:33N 55°45' E 012°42'1110.7
2016-Jul-14 23:33N 55°34' E 012°42'10 9.8
2016-Jul-14 22:33N 55°25' E 012°42'8 8.4
2016-Jul-14 21:33N 55°17' E 012°48'1 0.0
2016-Jul-13 03:28N 55°16' E 012°47'7 7.7
2016-Jul-13 02:34N 55°21' E 012°39'10 9.8
2016-Jul-13 01:34N 55°30' E 012°41'1010.2
2016-Jul-13 00:34N 55°41' E 012°41'10 9.9
2016-Jul-12 23:34N 55°51' E 012°41'10 9.8
2016-Jul-12 22:34N 56°00' E 012°38'9 9.3
2016-Jul-12 21:34N 56°08' E 012°28'38 9.3
2016-Jul-12 17:31N 56°40' E 011°54'1010.4
2016-Jul-12 16:33N 56°50' E 011°49'3210.4
2016-Jul-12 13:26N 57°21' E 011°29'910.0
2016-Jul-12 12:34N 57°29' E 011°23'1110.5
2016-Jul-12 11:34N 57°36' E 011°08'133 9.5
2016-Jul-11 21:33N 57°53' E 007°01'9 8.6
2016-Jul-11 20:33N 57°56' E 006°46'9 8.6
2016-Jul-11 19:34N 57°59' E 006°31'10 9.5
2016-Jul-11 18:32N 58°06' E 006°17'9 9.4
2016-Jul-11 17:32N 58°12' E 006°05'9 8.9
2016-Jul-11 16:32N 58°18' E 005°52'9 8.9
2016-Jul-11 15:33N 58°24' E 005°40'11 8.7
2016-Jul-11 14:18N 58°32' E 005°27'6 8.6
2016-Jul-11 13:34N 58°38' E 005°21'9 8.9
2016-Jul-11 12:34N 58°46' E 005°13'9 9.0
2016-Jul-11 11:34N 58°54' E 005°04'9 8.9
2016-Jul-11 10:34N 59°01' E 004°55'  
Track history (hours):
 
Tides and Currents Weather Stations Pressure Air Temp Water Temp Dewpoint Dewpoint Depression Visibility Wind Speed Wind Dir Waves Ship Positions

Berit

Last reported at 2016-Jul-19 08:25 UTC. Time now 2016-Jul-23 13:07 UTC.
Position N 66°47' E 013°18'.

Length 83 m; draft 3.4 m.

Type: Cargo ship. MMSI: 236386000.

Date/timePositionNaut miles runAvg speedWind from/ knotsBaromVisibWave heightAir tempDewpointWater temp
2016-Jul-19 08:25N 66°47' E 013°18'37 9.5
2016-Jul-19 04:33N 66°15' E 012°31'9 8.7
2016-Jul-19 03:33N 66°17' E 012°10'461 8.9
2016-Jul-16 23:33N 59°23' E 004°40'9 9.0
2016-Jul-16 22:32N 59°14' E 004°42'8 8.6
2016-Jul-16 21:33N 59°07' E 004°51'9 8.7
2016-Jul-16 20:34N 59°00' E 005°00'8 8.2
2016-Jul-16 19:33N 58°53' E 005°08'8 7.9
2016-Jul-16 18:33N 58°46' E 005°16'9 8.8
2016-Jul-16 17:33N 58°39' E 005°25'1010.4
2016-Jul-16 16:33N 58°30' E 005°36'1010.1
2016-Jul-16 15:33N 58°23' E 005°50'1010.1
2016-Jul-16 14:32N 58°16' E 006°05'10 9.9
2016-Jul-16 13:33N 58°09' E 006°18'9 9.1
2016-Jul-16 12:33N 58°03' E 006°31'9 8.8
2016-Jul-16 11:33N 57°60' E 006°46'9 8.7
2016-Jul-16 10:33N 57°57' E 007°02'78 8.3
2016-Jul-16 01:07N 57°52' E 009°29'3 4.9
2016-Jul-16 00:33N 57°51' E 009°34'5 4.1
2016-Jul-15 23:25N 57°50' E 009°42'4 4.0
2016-Jul-15 22:33N 57°50' E 009°49'5 4.7
2016-Jul-15 21:25N 57°50' E 009°59'6 6.1
2016-Jul-15 20:25N 57°50' E 010°11'6 7.3
2016-Jul-15 19:33N 57°49' E 010°22'9 8.1
2016-Jul-15 18:23N 57°48' E 010°40'5 5.6
2016-Jul-15 17:30N 57°44' E 010°42'3 3.6
2016-Jul-15 16:32N 57°42' E 010°36'2 1.5
2016-Jul-15 15:29N 57°41' E 010°39'9 9.7
2016-Jul-15 14:33N 57°39' E 010°55'9 9.4
2016-Jul-15 13:33N 57°35' E 011°11'10 9.5
2016-Jul-15 12:33N 57°29' E 011°24'9 9.4
2016-Jul-15 11:33N 57°20' E 011°31'10 9.7
2016-Jul-15 10:33N 57°11' E 011°37'10 9.8
2016-Jul-15 09:33N 57°02' E 011°43'10 9.8
2016-Jul-15 08:33N 56°52' E 011°49'9 9.1
2016-Jul-15 07:33N 56°44' E 011°54'9 9.1
2016-Jul-15 06:32N 56°35' E 011°58'10 9.1
2016-Jul-15 05:28N 56°26' E 012°07'11 9.2
2016-Jul-15 04:15N 56°18' E 012°20'7 9.9
2016-Jul-15 03:33N 56°12' E 012°27'10 9.9
2016-Jul-15 02:33N 56°04' E 012°38'10 9.9
2016-Jul-15 01:33N 55°55' E 012°44'1010.0
2016-Jul-15 00:33N 55°45' E 012°42'1110.7
2016-Jul-14 23:33N 55°34' E 012°42'10 9.8
2016-Jul-14 22:33N 55°25' E 012°42'8 8.4
2016-Jul-14 21:33N 55°17' E 012°48'1 0.0
2016-Jul-13 03:28N 55°16' E 012°47'7 7.7
2016-Jul-13 02:34N 55°21' E 012°39'10 9.8
2016-Jul-13 01:34N 55°30' E 012°41'1010.2
2016-Jul-13 00:34N 55°41' E 012°41'10 9.9
2016-Jul-12 23:34N 55°51' E 012°41'10 9.8
2016-Jul-12 22:34N 56°00' E 012°38'9 9.3
2016-Jul-12 21:34N 56°08' E 012°28'38 9.3
2016-Jul-12 17:31N 56°40' E 011°54'1010.4
2016-Jul-12 16:33N 56°50' E 011°49'3210.4
2016-Jul-12 13:26N 57°21' E 011°29'910.0
2016-Jul-12 12:34N 57°29' E 011°23'1110.5
2016-Jul-12 11:34N 57°36' E 011°08'133 9.5
2016-Jul-11 21:33N 57°53' E 007°01'9 8.6
2016-Jul-11 20:33N 57°56' E 006°46'9 8.6
2016-Jul-11 19:34N 57°59' E 006°31'10 9.5
2016-Jul-11 18:32N 58°06' E 006°17'9 9.4
2016-Jul-11 17:32N 58°12' E 006°05'9 8.9
2016-Jul-11 16:32N 58°18' E 005°52'9 8.9
2016-Jul-11 15:33N 58°24' E 005°40'11 8.7
2016-Jul-11 14:18N 58°32' E 005°27'6 8.6
2016-Jul-11 13:34N 58°38' E 005°21'9 8.9
2016-Jul-11 12:34N 58°46' E 005°13'9 9.0
2016-Jul-11 11:34N 58°54' E 005°04'9 8.9
2016-Jul-11 10:34N 59°01' E 004°55'  

Dump ship's entire track history